Time;durP1;ratioP1;P1;durP2;ratioP2;P2;SDS_P1;SDS_P2;PMS_P1;PMS_P2;Temp;Humidity;BMP_temperature;BMP_pressure;BME280_temperature;BME280_humidity;BME280_pressure;Samples;Min_cycle;Max_cycle;Signal;HPM_P1;HPM_P2
2023/07/08 00:00:11;;;;;;;6.05;3.95;;;21.10;50.30;;;;;;873756;161;27447;-76
2023/07/08 00:02:38;;;;;;;4.95;4.50;;;21.10;50.30;;;;;;873009;162;27931;-76
2023/07/08 00:05:05;;;;;;;5.83;4.80;;;21.00;50.30;;;;;;873056;161;27435;-76
2023/07/08 00:07:31;;;;;;;4.85;4.33;;;20.90;50.30;;;;;;873431;159;27528;-75
2023/07/08 00:09:58;;;;;;;6.80;4.50;;;20.90;50.50;;;;;;873887;162;27500;-76
2023/07/08 00:12:24;;;;;;;5.10;4.60;;;20.90;50.80;;;;;;874050;163;27459;-75
2023/07/08 00:14:51;;;;;;;5.22;4.40;;;20.80;50.70;;;;;;873802;162;27408;-75
2023/07/08 00:17:17;;;;;;;5.40;4.47;;;20.80;50.80;;;;;;873105;162;27467;-76
2023/07/08 00:19:44;;;;;;;4.40;4.00;;;20.80;50.70;;;;;;873875;161;28028;-75
2023/07/08 00:22:16;;;;;;;5.78;4.67;;;20.80;50.80;;;;;;873762;162;27459;-76
2023/07/08 00:24:43;;;;;;;5.15;4.62;;;20.80;50.80;;;;;;873830;161;27380;-75
2023/07/08 00:27:15;;;;;;;5.80;4.25;;;20.70;50.90;;;;;;873578;160;27464;-76
2023/07/08 00:29:42;;;;;;;4.65;4.25;;;20.70;51.00;;;;;;873845;163;27468;-75
2023/07/08 00:32:12;;;;;;;5.70;3.70;;;20.70;51.10;;;;;;874040;162;27460;-75
2023/07/08 00:34:38;;;;;;;4.80;4.05;;;20.70;51.20;;;;;;873102;161;27381;-75
2023/07/08 00:37:05;;;;;;;4.05;3.60;;;20.70;51.20;;;;;;872839;161;27411;-75
2023/07/08 00:39:33;;;;;;;4.97;4.47;;;20.60;51.40;;;;;;873622;162;27443;-75
2023/07/08 00:42:03;;;;;;;4.50;4.10;;;20.60;51.50;;;;;;872465;161;27497;-75
2023/07/08 00:44:30;;;;;;;5.15;4.62;;;20.60;51.70;;;;;;870713;161;27450;-75
2023/07/08 00:47:05;;;;;;;5.00;4.45;;;20.50;51.90;;;;;;871586;162;27420;-75
2023/07/08 00:49:41;;;;;;;5.37;4.90;;;20.50;52.30;;;;;;871322;163;28025;-75
2023/07/08 00:52:22;;;;;;;6.60;5.12;;;20.50;52.40;;;;;;865745;161;27556;-75
2023/07/08 00:54:54;;;;;;;4.87;4.17;;;20.40;52.50;;;;;;871818;162;27436;-75
2023/07/08 00:57:21;;;;;;;5.42;4.90;;;20.40;52.60;;;;;;872399;161;27427;-75
2023/07/08 00:59:56;;;;;;;5.58;5.08;;;20.40;52.70;;;;;;872168;162;27622;-75
2023/07/08 01:02:23;;;;;;;5.00;4.50;;;20.40;52.90;;;;;;871356;163;27411;-76
2023/07/08 01:04:55;;;;;;;4.87;4.30;;;20.30;52.90;;;;;;872080;163;27472;-76
2023/07/08 01:07:22;;;;;;;4.92;4.45;;;20.30;53.00;;;;;;871089;161;27451;-76
2023/07/08 01:09:48;;;;;;;6.40;4.87;;;20.20;53.00;;;;;;872007;162;27508;-76
2023/07/08 01:12:15;;;;;;;5.45;4.67;;;20.20;53.20;;;;;;871667;162;27440;-76
2023/07/08 01:14:42;;;;;;;4.85;4.37;;;20.10;53.20;;;;;;872039;161;27432;-76
2023/07/08 01:17:13;;;;;;;5.12;4.62;;;20.10;53.30;;;;;;872205;162;27354;-76
2023/07/08 01:19:35;;;;;;;4.85;4.45;;;20.00;53.40;;;;;;873111;162;27520;-76
2023/07/08 01:22:04;;;;;;;6.35;4.60;;;20.00;53.70;;;;;;871979;162;27534;-76
2023/07/08 01:24:31;;;;;;;5.28;4.78;;;20.00;53.90;;;;;;872503;162;27516;-76
2023/07/08 01:26:57;;;;;;;5.17;4.67;;;19.90;54.00;;;;;;871693;163;27490;-76
2023/07/08 01:29:24;;;;;;;4.37;3.98;;;19.90;54.10;;;;;;872435;161;27467;-76
2023/07/08 01:31:51;;;;;;;5.50;4.00;;;19.90;54.20;;;;;;872072;163;27548;-76
2023/07/08 01:34:17;;;;;;;5.08;4.58;;;19.80;54.30;;;;;;871704;161;27450;-76
2023/07/08 01:36:46;;;;;;;6.08;5.47;;;19.80;54.90;;;;;;872144;161;27443;-76
2023/07/08 01:39:17;;;;;;;5.12;4.62;;;19.70;54.30;;;;;;872285;161;27458;-76
2023/07/08 01:41:42;;;;;;;5.40;4.90;;;19.70;54.30;;;;;;872131;163;27629;-76
2023/07/08 01:44:34;;;;;;;4.80;4.33;;;19.70;54.40;;;;;;871663;162;27416;-76
2023/07/08 01:47:03;;;;;;;5.33;4.83;;;19.70;54.50;;;;;;871831;163;27447;-75
2023/07/08 01:49:30;;;;;;;4.55;4.00;;;19.60;54.40;;;;;;871985;161;28032;-75
2023/07/08 01:51:56;;;;;;;5.05;4.55;;;19.60;54.60;;;;;;871969;161;27399;-75
2023/07/08 01:54:23;;;;;;;6.25;5.25;;;19.50;54.80;;;;;;872393;161;27463;-75
2023/07/08 01:56:51;;;;;;;5.75;4.97;;;19.50;54.30;;;;;;871661;161;27415;-76
2023/07/08 01:59:16;;;;;;;4.72;4.28;;;19.50;55.00;;;;;;871617;161;27495;-76
2023/07/08 02:01:43;;;;;;;5.10;4.60;;;19.40;55.10;;;;;;871898;161;27460;-75
2023/07/08 02:04:09;;;;;;;5.62;5.05;;;19.40;55.30;;;;;;871524;162;27555;-75
2023/07/08 02:06:36;;;;;;;4.97;4.53;;;19.40;55.30;;;;;;872591;161;27447;-75
2023/07/08 02:09:03;;;;;;;5.00;4.50;;;19.40;55.40;;;;;;871872;161;27605;-73
2023/07/08 02:11:29;;;;;;;5.45;4.72;;;19.40;55.40;;;;;;872193;164;27412;-73
2023/07/08 02:13:56;;;;;;;4.40;3.98;;;19.40;55.60;;;;;;871553;163;27810;-73
2023/07/08 02:16:22;;;;;;;4.60;4.20;;;19.40;55.70;;;;;;871754;161;27543;-73
2023/07/08 02:18:49;;;;;;;6.33;4.78;;;19.30;55.80;;;;;;871282;161;27355;-73
2023/07/08 02:21:17;;;;;;;5.15;4.65;;;19.30;55.80;;;;;;871960;161;27416;-73
2023/07/08 02:23:42;;;;;;;5.40;4.60;;;19.20;55.80;;;;;;872131;163;27482;-73
2023/07/08 02:26:09;;;;;;;4.97;4.40;;;19.20;55.90;;;;;;871973;161;27455;-73
2023/07/08 02:28:35;;;;;;;4.87;4.37;;;19.20;56.00;;;;;;872411;162;27521;-73
2023/07/08 02:31:02;;;;;;;5.12;4.53;;;19.10;56.00;;;;;;870986;163;27440;-73
2023/07/08 02:33:32;;;;;;;7.17;4.92;;;19.10;56.20;;;;;;871942;161;27510;-73
2023/07/08 02:35:55;;;;;;;5.90;5.00;;;19.00;56.40;;;;;;871913;161;27458;-73
2023/07/08 02:38:22;;;;;;;5.40;4.75;;;19.00;56.50;;;;;;872255;161;27463;-73
2023/07/08 02:40:48;;;;;;;5.53;4.65;;;19.00;56.60;;;;;;872307;162;27835;-71
2023/07/08 02:43:15;;;;;;;6.97;4.53;;;19.00;56.60;;;;;;874511;161;27474;-71
2023/07/08 02:45:41;;;;;;;6.47;5.85;;;19.00;56.70;;;;;;875267;161;27541;-71
2023/07/08 02:48:08;;;;;;;5.22;4.72;;;18.90;56.80;;;;;;875372;160;27453;-71
2023/07/08 02:50:35;;;;;;;4.67;4.28;;;18.90;56.90;;;;;;874824;163;27528;-70
2023/07/08 02:53:01;;;;;;;4.87;4.10;;;18.90;57.00;;;;;;874475;160;27511;-71
2023/07/08 02:55:28;;;;;;;5.30;4.47;;;18.90;57.10;;;;;;874942;160;27793;-71
2023/07/08 02:57:54;;;;;;;5.22;4.70;;;18.80;57.20;;;;;;874708;160;27475;-71
2023/07/08 03:00:21;;;;;;;5.37;4.87;;;18.80;57.30;;;;;;875363;160;27552;-71
2023/07/08 03:02:48;;;;;;;6.65;5.35;;;18.80;57.30;;;;;;875314;161;27357;-71
2023/07/08 03:05:14;;;;;;;5.87;5.28;;;18.80;57.40;;;;;;875449;160;27508;-71
2023/07/08 03:07:41;;;;;;;5.55;4.55;;;18.70;57.40;;;;;;875109;160;27451;-71
2023/07/08 03:10:07;;;;;;;5.12;4.62;;;18.70;57.40;;;;;;874898;161;27457;-70
2023/07/08 03:12:34;;;;;;;5.17;4.70;;;18.60;57.50;;;;;;875273;163;27415;-70
2023/07/08 03:15:01;;;;;;;5.25;4.75;;;18.60;57.50;;;;;;874959;161;27438;-71
2023/07/08 03:17:27;;;;;;;6.17;5.10;;;18.50;57.70;;;;;;875251;161;27500;-71
2023/07/08 03:19:54;;;;;;;5.10;4.60;;;18.50;58.00;;;;;;875446;161;27463;-71
2023/07/08 03:22:20;;;;;;;4.90;4.50;;;18.50;58.10;;;;;;875526;163;27443;-71
2023/07/08 03:24:47;;;;;;;5.10;4.60;;;18.40;58.20;;;;;;875312;162;27438;-71
2023/07/08 03:27:16;;;;;;;6.10;4.78;;;18.40;58.40;;;;;;875087;161;27489;-71
2023/07/08 03:29:43;;;;;;;5.33;4.83;;;18.50;58.50;;;;;;875265;160;27535;-71
2023/07/08 03:32:10;;;;;;;5.30;4.80;;;18.50;58.60;;;;;;875415;163;27550;-70
2023/07/08 03:34:36;;;;;;;5.10;4.60;;;18.50;58.70;;;;;;874952;161;27540;-71
2023/07/08 03:37:03;;;;;;;6.20;5.37;;;18.50;58.70;;;;;;874402;161;27502;-70
2023/07/08 03:39:31;;;;;;;4.87;4.37;;;18.50;58.80;;;;;;875090;160;27523;-71
2023/07/08 03:41:56;;;;;;;5.78;5.20;;;18.50;58.80;;;;;;875378;160;27539;-71
2023/07/08 03:44:22;;;;;;;7.53;5.30;;;18.60;58.80;;;;;;874858;160;27490;-71
2023/07/08 03:46:52;;;;;;;4.97;4.47;;;18.60;58.80;;;;;;875054;161;27371;-71
2023/07/08 03:49:21;;;;;;;6.67;5.30;;;18.60;58.90;;;;;;875071;160;27463;-71
2023/07/08 03:51:48;;;;;;;5.83;5.25;;;18.60;58.90;;;;;;875004;163;27471;-70
2023/07/08 03:54:14;;;;;;;5.37;4.80;;;18.70;59.10;;;;;;874849;160;27399;-70
2023/07/08 03:56:41;;;;;;;5.17;4.70;;;18.60;59.20;;;;;;874784;161;27521;-70
2023/07/08 03:59:07;;;;;;;6.17;5.60;;;18.60;59.30;;;;;;875017;160;27389;-70
2023/07/08 04:01:34;;;;;;;5.85;5.00;;;18.70;59.30;;;;;;875636;161;27472;-71
2023/07/08 04:04:01;;;;;;;5.87;4.62;;;18.70;59.30;;;;;;875232;161;27443;-71
2023/07/08 04:06:31;;;;;;;5.85;5.25;;;18.70;59.60;;;;;;874923;161;27492;-71
2023/07/08 04:08:54;;;;;;;5.05;4.55;;;18.70;59.60;;;;;;874642;160;27473;-71
2023/07/08 04:11:20;;;;;;;5.67;4.50;;;18.80;60.30;;;;;;875105;161;27395;-71
2023/07/08 04:13:47;;;;;;;5.22;4.72;;;18.80;59.80;;;;;;875149;162;27447;-71
2023/07/08 04:16:19;;;;;;;7.62;5.15;;;18.90;60.00;;;;;;875147;163;27439;-71
2023/07/08 04:18:46;;;;;;;5.78;4.90;;;18.90;60.00;;;;;;874253;160;27435;-71
2023/07/08 04:21:12;;;;;;;5.25;4.72;;;19.00;60.00;;;;;;875050;160;27877;-71
2023/07/08 04:23:39;;;;;;;5.08;4.60;;;19.10;60.10;;;;;;875535;161;27528;-71
2023/07/08 04:26:06;;;;;;;4.90;4.37;;;19.10;60.10;;;;;;875130;161;27949;-71
2023/07/08 04:28:32;;;;;;;4.95;4.55;;;19.20;60.10;;;;;;875104;160;27465;-71
2023/07/08 04:30:59;;;;;;;5.83;4.28;;;19.30;60.20;;;;;;875078;161;27509;-71
2023/07/08 04:33:25;;;;;;;6.22;4.83;;;19.40;60.20;;;;;;875166;163;27525;-71
2023/07/08 04:35:54;;;;;;;4.35;3.95;;;19.50;60.20;;;;;;874467;160;27444;-71
2023/07/08 04:38:21;;;;;;;6.03;4.25;;;19.60;60.00;;;;;;875259;160;27460;-75
2023/07/08 04:40:46;;;;;;;5.35;4.85;;;19.80;60.00;;;;;;874774;160;27457;-75
2023/07/08 04:43:12;;;;;;;5.75;4.83;;;19.90;59.80;;;;;;874542;160;27478;-75
2023/07/08 04:45:38;;;;;;;5.17;4.67;;;20.00;59.70;;;;;;879969;159;27470;-76
2023/07/08 04:48:12;;;;;;;5.12;4.62;;;20.20;59.70;;;;;;879673;159;27445;-76
2023/07/08 04:50:35;;;;;;;5.28;4.47;;;20.30;59.60;;;;;;879646;162;27384;-76
2023/07/08 04:53:02;;;;;;;5.65;5.12;;;20.50;59.80;;;;;;879346;159;27699;-76
2023/07/08 04:55:27;;;;;;;5.62;4.92;;;20.60;59.30;;;;;;879726;159;27450;-76
2023/07/08 04:57:54;;;;;;;5.92;5.33;;;20.80;59.20;;;;;;880096;159;27931;-76
2023/07/08 05:00:22;;;;;;;6.05;5.42;;;21.00;59.00;;;;;;880710;162;27540;-76
2023/07/08 05:02:47;;;;;;;5.03;4.62;;;21.20;58.80;;;;;;879175;161;27499;-76
2023/07/08 05:05:14;;;;;;;5.75;5.15;;;21.30;58.70;;;;;;880082;161;27522;-76
2023/07/08 05:07:40;;;;;;;6.12;5.40;;;21.50;58.50;;;;;;880458;159;27449;-76
2023/07/08 05:10:07;;;;;;;5.53;5.00;;;21.70;58.10;;;;;;879372;159;27493;-76
2023/07/08 05:12:34;;;;;;;5.60;5.03;;;22.00;57.90;;;;;;880340;161;27429;-76
2023/07/08 05:15:00;;;;;;;5.22;4.72;;;22.30;58.30;;;;;;880112;161;27420;-76
2023/07/08 05:17:27;;;;;;;6.95;5.03;;;22.70;58.30;;;;;;880204;162;27435;-76
2023/07/08 05:19:54;;;;;;;5.03;4.53;;;23.20;58.20;;;;;;880184;159;27451;-76
2023/07/08 05:22:25;;;;;;;5.42;4.92;;;23.80;57.80;;;;;;880145;162;27497;-76
2023/07/08 05:24:47;;;;;;;4.70;4.30;;;24.30;57.10;;;;;;880418;161;27419;-76
2023/07/08 05:27:13;;;;;;;5.90;4.70;;;24.90;56.40;;;;;;879982;161;27553;-76
2023/07/08 05:29:40;;;;;;;5.55;4.70;;;25.60;55.70;;;;;;880414;159;27520;-76
2023/07/08 05:32:06;;;;;;;9.03;5.22;;;26.20;55.20;;;;;;880037;159;27420;-76
2023/07/08 05:34:33;;;;;;;5.17;4.78;;;26.70;54.20;;;;;;880059;161;27569;-76
2023/07/08 05:37:00;;;;;;;5.17;4.67;;;27.20;53.20;;;;;;880005;160;27423;-76
2023/07/08 05:39:26;;;;;;;5.37;4.97;;;27.60;52.30;;;;;;880638;159;27533;-76
2023/07/08 05:41:53;;;;;;;5.30;4.80;;;28.00;51.50;;;;;;880539;159;27575;-76
2023/07/08 05:44:19;;;;;;;5.10;4.60;;;28.30;50.80;;;;;;879921;159;27452;-75
2023/07/08 05:46:46;;;;;;;5.22;4.72;;;28.50;50.30;;;;;;875852;162;27448;-76
2023/07/08 05:49:13;;;;;;;4.92;4.47;;;28.90;50.10;;;;;;873443;161;27478;-76
2023/07/08 05:51:39;;;;;;;5.72;4.33;;;29.30;50.20;;;;;;873301;161;27472;-76
2023/07/08 05:54:06;;;;;;;4.50;4.10;;;29.80;50.50;;;;;;873340;161;27408;-76
2023/07/08 05:56:32;;;;;;;4.15;3.75;;;30.40;50.10;;;;;;873508;163;27450;-76
2023/07/08 05:58:59;;;;;;;4.65;4.08;;;31.00;49.50;;;;;;873521;161;27416;-76
2023/07/08 06:01:26;;;;;;;4.55;4.03;;;31.70;48.70;;;;;;873704;163;27452;-76
2023/07/08 06:03:52;;;;;;;4.17;3.87;;;32.30;47.50;;;;;;873069;161;27522;-76
2023/07/08 06:06:19;;;;;;;3.90;3.55;;;32.90;46.50;;;;;;873075;161;27473;-76
2023/07/08 06:08:45;;;;;;;4.33;3.92;;;33.50;46.30;;;;;;872801;161;26310;-77
2023/07/08 06:11:12;;;;;;;5.17;3.90;;;34.10;45.80;;;;;;874382;161;27440;-76
2023/07/08 06:13:38;;;;;;;3.62;3.33;;;34.70;45.00;;;;;;877736;162;26353;-77
2023/07/08 06:16:05;;;;;;;4.12;3.75;;;35.20;44.10;;;;;;875087;162;26435;-77
2023/07/08 06:18:32;;;;;;;4.08;3.77;;;35.80;43.10;;;;;;873718;161;27717;-77
2023/07/08 06:20:58;;;;;;;4.33;3.92;;;36.30;42.00;;;;;;873439;163;26396;-76
2023/07/08 06:23:25;;;;;;;3.92;3.45;;;36.70;41.00;;;;;;873297;161;26447;-77
2023/07/08 06:25:51;;;;;;;3.85;3.55;;;36.90;40.10;;;;;;873618;163;26742;-76
2023/07/08 06:28:18;;;;;;;3.95;3.60;;;37.10;39.60;;;;;;873756;161;26484;-77
2023/07/08 06:30:45;;;;;;;4.65;3.95;;;37.40;39.60;;;;;;873286;163;26439;-77
2023/07/08 06:33:11;;;;;;;3.37;3.17;;;37.80;39.60;;;;;;873601;161;26356;-77
2023/07/08 06:35:38;;;;;;;3.85;3.52;;;38.30;39.50;;;;;;873446;162;26370;-77
2023/07/08 06:38:04;;;;;;;3.80;3.40;;;38.90;39.20;;;;;;873654;161;26446;-77
2023/07/08 06:40:31;;;;;;;5.00;3.45;;;39.50;38.60;;;;;;873588;163;26287;-77
2023/07/08 06:42:58;;;;;;;3.30;3.10;;;40.30;37.80;;;;;;872893;161;26354;-77
2023/07/08 06:45:24;;;;;;;3.58;3.30;;;41.00;37.20;;;;;;873997;160;26405;-77
2023/07/08 06:47:51;;;;;;;3.62;3.30;;;41.70;36.30;;;;;;873400;160;26354;-77
2023/07/08 06:50:17;;;;;;;3.75;3.45;;;42.50;35.50;;;;;;873682;160;26332;-77
2023/07/08 06:52:44;;;;;;;3.50;3.20;;;43.10;34.50;;;;;;873348;160;26663;-78
2023/07/08 06:55:10;;;;;;;3.22;3.00;;;43.70;33.40;;;;;;872932;160;26430;-78
2023/07/08 06:57:40;;;;;;;3.98;3.17;;;44.10;32.20;;;;;;874132;163;26342;-77
2023/07/08 07:00:09;;;;;;;3.15;2.95;;;44.20;31.00;;;;;;873616;160;26464;-77
2023/07/08 07:02:36;;;;;;;3.85;3.52;;;44.10;30.20;;;;;;873242;160;26337;-77
2023/07/08 07:05:02;;;;;;;3.70;3.40;;;44.00;29.90;;;;;;873897;161;26364;-77
2023/07/08 07:07:29;;;;;;;3.20;3.00;;;43.80;30.10;;;;;;874551;160;26420;-78
2023/07/08 07:09:56;;;;;;;3.33;3.02;;;43.70;30.10;;;;;;874372;160;26339;-77
2023/07/08 07:12:22;;;;;;;6.72;3.40;;;43.70;29.90;;;;;;873416;160;26353;-77
2023/07/08 07:14:49;;;;;;;3.45;3.15;;;43.60;29.60;;;;;;874190;161;26353;-77
2023/07/08 07:17:15;;;;;;;3.30;3.00;;;43.50;29.40;;;;;;874161;160;26441;-77
2023/07/08 07:19:42;;;;;;;3.37;3.08;;;43.30;29.60;;;;;;874450;161;26354;-77
2023/07/08 07:22:09;;;;;;;3.60;3.30;;;43.10;29.60;;;;;;873887;160;26420;-77
2023/07/08 07:24:35;;;;;;;3.25;2.92;;;42.90;29.20;;;;;;874113;160;26346;-77
2023/07/08 07:27:02;;;;;;;3.37;3.10;;;42.40;28.90;;;;;;874128;163;26440;-77
2023/07/08 07:29:28;;;;;;;3.50;3.20;;;41.90;28.60;;;;;;873561;160;26355;-77
2023/07/08 07:31:55;;;;;;;3.30;3.10;;;41.40;28.70;;;;;;872526;160;27611;-77
2023/07/08 07:34:22;;;;;;;4.40;2.87;;;40.90;29.00;;;;;;872723;160;26396;-77
2023/07/08 07:36:48;;;;;;;4.30;3.25;;;40.30;29.10;;;;;;873072;160;26330;-76
2023/07/08 07:39:15;;;;;;;3.92;3.45;;;39.80;29.30;;;;;;872449;160;26345;-77
2023/07/08 07:41:41;;;;;;;3.55;3.08;;;39.30;29.30;;;;;;872087;160;26354;-77
2023/07/08 07:44:08;;;;;;;4.15;3.58;;;38.90;29.50;;;;;;873235;160;26990;-77
2023/07/08 07:46:34;;;;;;;3.52;3.22;;;38.50;29.70;;;;;;872082;161;26398;-77
2023/07/08 07:49:01;;;;;;;3.80;3.45;;;38.20;29.90;;;;;;870035;161;26353;-77
2023/07/08 07:51:28;;;;;;;3.65;3.35;;;37.80;29.90;;;;;;869391;161;26358;-77
2023/07/08 07:53:54;;;;;;;3.50;3.20;;;37.40;29.90;;;;;;870791;161;27454;-76
2023/07/08 07:56:21;;;;;;;3.92;3.62;;;37.10;30.00;;;;;;870746;161;27497;-76
2023/07/08 07:58:48;;;;;;;3.92;3.62;;;36.70;30.00;;;;;;870338;161;26315;-77
2023/07/08 08:01:15;;;;;;;3.27;3.08;;;36.40;30.30;;;;;;869949;159;27433;-77
2023/07/08 08:03:40;;;;;;;3.62;3.35;;;36.00;30.60;;;;;;869743;161;27397;-76
2023/07/08 08:06:07;;;;;;;4.10;3.70;;;35.70;30.80;;;;;;870960;161;27491;-75
2023/07/08 08:08:34;;;;;;;3.58;3.27;;;35.50;31.10;;;;;;870091;161;27363;-75
2023/07/08 08:11:00;;;;;;;4.45;3.83;;;35.20;31.30;;;;;;869758;161;27464;-75
2023/07/08 08:13:27;;;;;;;3.90;3.60;;;35.10;31.50;;;;;;870010;161;27445;-74
2023/07/08 08:15:57;;;;;;;4.08;3.10;;;34.80;31.80;;;;;;871070;161;27414;-75
2023/07/08 08:18:23;;;;;;;3.90;3.60;;;34.80;32.10;;;;;;871327;161;27392;-74
2023/07/08 08:20:49;;;;;;;3.87;3.58;;;34.70;32.30;;;;;;869874;161;27538;-74
2023/07/08 08:23:16;;;;;;;4.12;3.72;;;34.60;32.70;;;;;;869193;161;27789;-76
2023/07/08 08:25:43;;;;;;;4.37;3.62;;;34.60;33.00;;;;;;870370;161;27496;-77
2023/07/08 08:28:09;;;;;;;3.87;3.58;;;34.60;33.00;;;;;;871694;161;27452;-76
2023/07/08 08:30:36;;;;;;;4.17;3.77;;;34.50;33.20;;;;;;871389;161;27424;-76
2023/07/08 08:33:03;;;;;;;3.42;3.15;;;34.50;33.40;;;;;;870621;161;27532;-77
2023/07/08 08:35:29;;;;;;;5.40;3.77;;;34.50;32.90;;;;;;869793;161;27438;-77
2023/07/08 08:37:56;;;;;;;3.75;3.45;;;34.50;33.70;;;;;;868056;162;27466;-77
2023/07/08 08:40:22;;;;;;;3.90;3.60;;;34.50;33.80;;;;;;870324;162;27494;-76
2023/07/08 08:43:01;;;;;;;5.65;3.87;;;34.60;33.60;;;;;;871022;161;27457;-76
2023/07/08 08:45:28;;;;;;;3.55;3.25;;;34.70;33.50;;;;;;870161;161;27564;-76
2023/07/08 08:48:00;;;;;;;4.40;4.00;;;34.90;33.50;;;;;;874451;160;27547;-76
2023/07/08 08:50:29;;;;;;;6.85;3.70;;;35.20;33.50;;;;;;875932;160;27440;-76
2023/07/08 08:52:56;;;;;;;3.75;3.45;;;35.40;33.30;;;;;;876223;160;26381;-77
2023/07/08 08:55:25;;;;;;;3.58;3.27;;;35.60;33.40;;;;;;876498;160;26452;-76
2023/07/08 08:58:00;;;;;;;4.85;3.55;;;36.00;33.50;;;;;;877184;161;26325;-76
2023/07/08 09:00:27;;;;;;;3.47;3.22;;;36.30;33.10;;;;;;875823;160;26365;-77
2023/07/08 09:02:53;;;;;;;4.28;3.87;;;36.60;33.10;;;;;;873986;160;26468;-76
2023/07/08 09:05:20;;;;;;;4.12;3.67;;;36.90;32.90;;;;;;876147;160;26430;-76
2023/07/08 09:08:05;;;;;;;4.00;3.65;;;37.30;32.90;;;;;;877336;160;26254;-76
2023/07/08 09:10:40;;;;;;;2.90;2.70;;;37.80;32.80;;;;;;876561;160;26357;-77
2023/07/08 09:13:07;;;;;;;5.87;3.33;;;38.50;33.80;;;;;;876544;161;26380;-77
2023/07/08 09:15:33;;;;;;;3.95;3.55;;;39.40;33.10;;;;;;877445;160;26689;-77
2023/07/08 09:18:00;;;;;;;3.52;3.12;;;40.30;32.80;;;;;;877088;161;26344;-77
2023/07/08 09:20:29;;;;;;;3.45;3.15;;;41.40;32.20;;;;;;876426;160;26345;-77
2023/07/08 09:23:08;;;;;;;3.10;2.90;;;42.40;31.10;;;;;;877311;161;26804;-77
2023/07/08 09:25:43;;;;;;;3.80;3.50;;;43.40;30.00;;;;;;876795;160;26321;-77
2023/07/08 09:28:10;;;;;;;4.15;3.67;;;44.30;29.60;;;;;;876199;160;26317;-77
2023/07/08 09:30:36;;;;;;;4.60;3.55;;;45.10;28.70;;;;;;877122;160;26349;-78
2023/07/08 09:33:03;;;;;;;3.58;3.27;;;45.70;28.20;;;;;;876968;160;26439;-77
2023/07/08 09:35:29;;;;;;;3.55;3.25;;;46.30;27.70;;;;;;876944;160;26401;-78
2023/07/08 09:37:56;;;;;;;3.50;3.30;;;46.70;27.30;;;;;;876417;160;26860;-78
2023/07/08 09:40:31;;;;;;;3.20;3.00;;;47.10;26.80;;;;;;877360;160;26361;-78
2023/07/08 09:42:58;;;;;;;3.35;3.05;;;47.40;26.30;;;;;;877180;160;26455;-78
2023/07/08 09:45:24;;;;;;;3.62;3.33;;;47.70;26.10;;;;;;870680;162;26341;-78
2023/07/08 09:47:54;;;;;;;3.42;3.12;;;47.90;25.80;;;;;;874453;161;26410;-78
2023/07/08 09:50:20;;;;;;;3.47;3.27;;;48.10;25.30;;;;;;871945;162;26358;-78
2023/07/08 09:52:49;;;;;;;3.83;3.60;;;48.20;25.10;;;;;;872033;163;26381;-78
2023/07/08 09:55:16;;;;;;;3.45;3.15;;;48.40;24.80;;;;;;871406;163;26435;-78
2023/07/08 09:57:43;;;;;;;3.50;3.20;;;48.50;24.60;;;;;;872052;163;26345;-78
2023/07/08 10:00:11;;;;;;;3.42;3.22;;;48.50;24.40;;;;;;871850;161;26362;-78
2023/07/08 10:02:36;;;;;;;3.52;3.33;;;48.40;24.00;;;;;;872196;163;26593;-78
2023/07/08 10:05:02;;;;;;;3.98;3.67;;;48.30;23.80;;;;;;872432;163;26311;-78
2023/07/08 10:07:30;;;;;;;4.03;3.70;;;48.20;23.50;;;;;;871279;161;26327;-78
2023/07/08 10:09:56;;;;;;;3.55;3.35;;;47.90;23.20;;;;;;871863;162;26350;-78
2023/07/08 10:12:22;;;;;;;4.03;3.72;;;47.70;23.20;;;;;;871739;163;26374;-79
2023/07/08 10:14:49;;;;;;;4.15;3.85;;;47.40;23.20;;;;;;871999;163;26331;-78
2023/07/08 10:17:15;;;;;;;4.00;3.70;;;47.10;23.20;;;;;;872050;162;26393;-78
2023/07/08 10:19:42;;;;;;;4.00;3.70;;;46.80;23.30;;;;;;871799;161;26420;-78
2023/07/08 10:22:33;;;;;;;4.17;3.85;;;46.60;23.50;;;;;;872028;163;26366;-78
2023/07/08 10:25:14;;;;;;;3.87;3.42;;;46.30;23.40;;;;;;859463;163;26390;-78
2023/07/08 10:27:50;;;;;;;5.75;4.03;;;45.90;23.40;;;;;;858943;161;26409;-78
2023/07/08 10:30:22;;;;;;;5.60;4.10;;;45.50;23.40;;;;;;865678;161;26420;-78
2023/07/08 10:33:16;;;;;;;4.25;3.92;;;45.00;23.60;;;;;;871142;163;26365;-79
2023/07/08 10:35:43;;;;;;;4.28;3.95;;;44.70;23.70;;;;;;871005;163;26347;-78
2023/07/08 10:38:24;;;;;;;4.90;4.40;;;44.20;23.80;;;;;;870414;162;26411;-79
2023/07/08 10:40:53;;;;;;;6.25;4.17;;;43.80;23.90;;;;;;871690;161;26349;-79
2023/07/08 10:43:41;;;;;;;4.92;4.45;;;43.30;23.90;;;;;;870306;161;26482;-78
2023/07/08 10:46:13;;;;;;;4.85;4.45;;;42.90;23.90;;;;;;871400;163;27468;-79
2023/07/08 10:48:52;;;;;;;5.97;4.60;;;42.40;24.20;;;;;;872451;161;27414;-78
2023/07/08 10:51:37;;;;;;;4.87;4.37;;;42.10;24.60;;;;;;875098;161;26444;-78
2023/07/08 10:54:25;;;;;;;5.17;4.67;;;41.70;24.70;;;;;;876120;162;26341;-78
2023/07/08 10:57:10;;;;;;;4.70;4.30;;;41.40;24.70;;;;;;873812;161;26369;-79
2023/07/08 10:59:37;;;;;;;5.00;4.60;;;41.10;24.60;;;;;;873199;161;26373;-78
2023/07/08 11:02:22;;;;;;;5.25;4.75;;;40.80;24.90;;;;;;873197;161;26925;-79
2023/07/08 11:05:00;;;;;;;4.65;4.25;;;40.50;25.00;;;;;;863930;161;26325;-70
2023/07/08 11:07:48;;;;;;;7.17;5.03;;;40.20;25.10;;;;;;872459;163;26398;-71
2023/07/08 11:10:17;;;;;;;4.47;4.17;;;40.00;25.10;;;;;;871739;161;26469;-71
2023/07/08 11:12:47;;;;;;;5.20;4.80;;;39.60;25.20;;;;;;872948;162;26377;-71
2023/07/08 11:15:25;;;;;;;4.83;4.37;;;39.40;25.50;;;;;;872538;161;27393;-71
2023/07/08 11:17:55;;;;;;;5.08;4.58;;;39.10;25.50;;;;;;872161;161;27464;-71
2023/07/08 11:20:27;;;;;;;4.92;4.40;;;38.80;25.50;;;;;;871688;161;27456;-71
2023/07/08 11:22:56;;;;;;;5.10;4.70;;;38.40;25.60;;;;;;860630;163;27439;-70
2023/07/08 11:25:23;;;;;;;5.00;4.60;;;38.10;25.80;;;;;;872063;161;27429;-71
2023/07/08 11:27:49;;;;;;;4.70;4.30;;;37.80;25.90;;;;;;872918;161;26342;-71
2023/07/08 11:30:16;;;;;;;5.00;4.20;;;37.50;26.10;;;;;;873275;161;27454;-71
2023/07/08 11:32:43;;;;;;;4.83;4.37;;;37.30;26.40;;;;;;873487;163;27428;-70
2023/07/08 11:35:18;;;;;;;4.72;4.35;;;37.10;27.10;;;;;;872971;161;27476;-71
2023/07/08 11:37:45;;;;;;;5.33;4.83;;;36.90;26.80;;;;;;872064;161;27547;-71
2023/07/08 11:40:20;;;;;;;4.50;4.10;;;36.70;27.00;;;;;;872538;161;27459;-71
2023/07/08 11:42:49;;;;;;;5.28;4.65;;;36.60;27.20;;;;;;871408;162;27441;-71
2023/07/08 11:45:19;;;;;;;4.70;4.30;;;36.50;27.20;;;;;;873582;162;27996;-71
2023/07/08 11:47:46;;;;;;;5.58;4.50;;;36.50;27.30;;;;;;873457;163;27501;-70
2023/07/08 11:50:15;;;;;;;5.30;4.83;;;36.50;27.30;;;;;;871688;161;27581;-71
2023/07/08 11:52:42;;;;;;;6.90;4.35;;;36.50;27.40;;;;;;872150;161;27518;-71
2023/07/08 11:55:08;;;;;;;4.75;4.35;;;36.50;27.50;;;;;;870650;163;27405;-71
2023/07/08 11:57:37;;;;;;;4.80;4.40;;;36.50;27.50;;;;;;870142;161;27499;-71
2023/07/08 12:00:13;;;;;;;4.72;4.20;;;36.40;27.30;;;;;;871918;161;27550;-71
2023/07/08 12:02:55;;;;;;;5.22;4.72;;;36.40;27.40;;;;;;871460;163;27543;-70
2023/07/08 12:05:34;;;;;;;5.60;4.67;;;36.30;27.50;;;;;;871662;161;27495;-70
2023/07/08 12:08:01;;;;;;;5.00;4.60;;;36.20;27.60;;;;;;871720;163;27407;-71
2023/07/08 12:10:27;;;;;;;6.47;4.72;;;36.20;27.80;;;;;;872046;161;27408;-71
2023/07/08 12:12:54;;;;;;;5.47;4.83;;;36.10;27.70;;;;;;871795;162;27463;-71
2023/07/08 12:15:23;;;;;;;4.83;4.42;;;36.00;27.80;;;;;;872349;162;27458;-71
2023/07/08 12:17:49;;;;;;;5.10;4.62;;;36.00;27.80;;;;;;871122;163;27476;-71
2023/07/08 12:20:28;;;;;;;7.58;4.70;;;36.00;27.90;;;;;;870954;162;27490;-71
2023/07/08 12:22:54;;;;;;;4.97;4.58;;;35.90;28.00;;;;;;870398;162;27467;-71
2023/07/08 12:25:21;;;;;;;5.22;4.62;;;35.90;28.00;;;;;;871844;162;27811;-70
2023/07/08 12:27:48;;;;;;;5.15;4.65;;;35.90;28.20;;;;;;871854;163;27440;-71
2023/07/08 12:30:14;;;;;;;5.00;4.60;;;35.80;28.20;;;;;;872857;161;27401;-71
2023/07/08 12:32:41;;;;;;;5.30;4.80;;;35.80;28.90;;;;;;871381;161;27439;-71
2023/07/08 12:35:22;;;;;;;5.12;4.67;;;35.80;28.40;;;;;;871817;162;27536;-71
2023/07/08 12:37:49;;;;;;;4.50;4.10;;;35.70;28.50;;;;;;870234;161;27487;-71
2023/07/08 12:40:15;;;;;;;4.10;3.80;;;35.80;28.70;;;;;;871249;161;27669;-71
2023/07/08 12:42:42;;;;;;;4.95;4.45;;;35.80;28.50;;;;;;870950;163;27464;-70
2023/07/08 12:45:14;;;;;;;5.10;3.95;;;35.80;28.60;;;;;;871176;161;27346;-71
2023/07/08 12:47:41;;;;;;;6.22;4.10;;;35.80;28.40;;;;;;866998;163;27425;-70
2023/07/08 12:50:08;;;;;;;4.67;3.87;;;35.90;28.30;;;;;;871756;160;27454;-70
2023/07/08 12:52:35;;;;;;;4.62;4.22;;;36.00;28.40;;;;;;872416;161;27518;-71